createdAt,value
2019-02-23T00:02:02.493Z,5.50
2019-02-23T00:04:33.104Z,5.50
2019-02-23T00:07:03.737Z,5.40
2019-02-23T00:09:34.362Z,5.30
2019-02-23T00:12:05.014Z,5.30
2019-02-23T01:07:59.012Z,4.30
2019-02-23T01:10:29.859Z,4.20
2019-02-23T01:13:00.592Z,4.10
2019-02-23T03:29:12.278Z,2.30
2019-02-23T04:49:42.518Z,2.20
2019-02-23T04:52:13.220Z,2.20
2019-02-23T04:54:43.808Z,2.10
2019-02-23T04:57:14.363Z,2.00
2019-02-23T04:59:44.940Z,2.10
2019-02-23T05:02:15.574Z,1.90
2019-02-23T05:04:46.301Z,2.00
2019-02-23T05:07:16.940Z,2.00
2019-02-23T05:09:47.601Z,2.00
2019-02-23T05:12:18.205Z,1.90
2019-02-23T05:14:48.844Z,2.00
2019-02-23T05:17:19.415Z,1.90
2019-02-23T05:19:50.064Z,1.90
2019-02-23T05:22:20.680Z,2.00
2019-02-23T05:24:53.407Z,1.90
2019-02-23T05:27:23.669Z,1.80
2019-02-23T05:29:54.329Z,1.90
2019-02-23T05:32:24.969Z,1.80
2019-02-23T05:34:55.544Z,1.80
2019-02-23T05:37:26.177Z,1.80
2019-02-23T05:39:56.846Z,1.80
2019-02-23T05:42:27.496Z,1.80
2019-02-23T05:44:58.144Z,1.70
2019-02-23T05:47:28.777Z,1.80
2019-02-23T05:49:59.364Z,1.70
2019-02-23T05:52:30.028Z,1.70
2019-02-23T05:55:00.701Z,1.60
2019-02-23T05:57:31.260Z,1.60
2019-02-23T06:00:01.916Z,1.60
2019-02-23T06:02:33.758Z,1.60
2019-02-23T06:05:04.361Z,1.50
2019-02-23T06:07:34.920Z,1.50
2019-02-23T06:10:07.196Z,1.60
2019-02-23T06:12:37.804Z,1.50
2019-02-23T06:15:11.234Z,2.70
2019-02-23T06:17:41.941Z,1.40
2019-02-23T06:20:12.857Z,1.30
2019-02-23T06:25:13.830Z,1.40
2019-02-23T06:27:44.468Z,1.40
2019-02-23T06:30:18.232Z,1.40
2019-02-23T06:32:47.388Z,1.40
2019-02-23T06:35:18.044Z,1.40
2019-02-23T06:37:48.604Z,1.50
2019-02-23T06:40:19.300Z,1.50
2019-02-23T06:42:49.943Z,1.40
2019-02-23T06:45:20.751Z,1.40
2019-02-23T06:47:51.369Z,1.40
2019-02-23T06:50:22.036Z,1.30
2019-02-23T06:52:52.600Z,1.30
2019-02-23T06:55:23.248Z,1.30
2019-02-23T06:57:53.966Z,1.30
2019-02-23T07:00:24.687Z,1.30
2019-02-23T07:02:55.337Z,1.40
2019-02-23T07:05:26.185Z,1.40
2019-02-23T07:07:56.821Z,1.40
2019-02-23T07:10:27.508Z,1.50
2019-02-23T07:12:58.066Z,1.60
2019-02-23T07:15:28.657Z,1.60
2019-02-23T07:17:59.820Z,1.70
2019-02-23T07:20:30.517Z,1.80
2019-02-23T07:23:01.083Z,1.80
2019-02-23T07:25:31.741Z,1.80
2019-02-23T07:28:02.370Z,1.80
2019-02-23T07:30:33.348Z,1.90
2019-02-23T07:33:03.913Z,2.00
2019-02-23T07:35:34.501Z,2.10
2019-02-23T07:38:05.201Z,2.20
2019-02-23T07:40:35.781Z,2.20
2019-02-23T07:43:06.334Z,2.30
2019-02-23T07:45:37.164Z,2.40
2019-02-23T07:48:07.725Z,2.40
2019-02-23T07:50:38.380Z,2.60
2019-02-23T07:53:09.119Z,2.70
2019-02-23T07:55:39.805Z,2.90
2019-02-23T07:58:10.578Z,3.10
2019-02-23T08:00:41.237Z,3.20
2019-02-23T08:03:11.865Z,3.40
2019-02-23T08:05:42.516Z,3.70
2019-02-23T08:08:13.073Z,4.00
2019-02-23T08:10:43.696Z,4.30
2019-02-23T08:13:14.396Z,4.80
2019-02-23T08:15:45.063Z,5.30
2019-02-23T08:18:15.713Z,5.30
2019-02-23T08:20:46.381Z,5.50
2019-02-23T08:23:17.014Z,5.90
2019-02-23T08:25:47.681Z,5.60
2019-02-23T08:28:18.313Z,5.60
2019-02-23T08:30:48.920Z,6.20
2019-02-23T08:33:19.553Z,6.50
2019-02-23T08:35:50.221Z,6.70
2019-02-23T08:38:20.764Z,7.20
2019-02-23T08:40:51.342Z,6.90
2019-02-23T08:43:21.985Z,7.40
2019-02-23T08:45:52.634Z,7.30
2019-02-23T08:48:24.661Z,7.70
2019-02-23T08:50:55.305Z,7.80
2019-02-23T08:53:25.912Z,7.90
2019-02-23T08:55:56.618Z,8.10
2019-02-23T08:58:27.245Z,7.10
2019-02-23T09:00:58.033Z,6.80
2019-02-23T09:03:28.714Z,7.10
2019-02-23T09:05:59.385Z,6.70
2019-02-23T09:11:35.089Z,6.20
2019-02-23T09:14:05.713Z,6.50
2019-02-23T09:16:36.429Z,6.90
2019-02-23T09:19:07.142Z,7.20
2019-02-23T09:21:37.814Z,7.90
2019-02-23T09:24:08.478Z,7.30
2019-02-23T09:26:39.218Z,7.60
2019-02-23T09:29:09.956Z,7.40
2019-02-23T09:31:40.683Z,7.10
2019-02-23T09:34:11.390Z,6.90
2019-02-23T09:36:42.126Z,6.60
2019-02-23T09:39:12.711Z,6.30
2019-02-23T09:41:43.451Z,6.70
2019-02-23T09:44:14.082Z,6.70
2019-02-23T09:46:44.690Z,6.70
2019-02-23T09:49:16.507Z,6.90
2019-02-23T09:51:47.238Z,6.90
2019-02-23T09:54:17.919Z,7.10
2019-02-23T09:56:48.587Z,7.10
2019-02-23T09:59:19.313Z,7.50
2019-02-23T10:01:50.087Z,7.70
2019-02-23T10:04:20.818Z,8.10
2019-02-23T10:06:51.479Z,8.70
2019-02-23T10:09:22.137Z,8.90
2019-02-23T10:11:52.873Z,8.70
2019-02-23T10:14:23.625Z,9.20
2019-02-23T10:16:55.170Z,10.40
2019-02-23T10:19:25.890Z,11.10
2019-02-23T10:21:56.468Z,9.90
2019-02-23T10:24:27.183Z,9.90
2019-02-23T10:26:57.877Z,10.30
2019-02-23T10:29:28.506Z,10.40
2019-02-23T10:31:59.163Z,10.40
2019-02-23T10:34:29.887Z,9.90
2019-02-23T10:37:00.614Z,9.90
2019-02-23T10:39:31.257Z,9.80
2019-02-23T10:42:01.998Z,10.60
2019-02-23T10:44:32.659Z,10.70
2019-02-23T10:47:03.404Z,10.80
2019-02-23T10:49:34.044Z,11.00
2019-02-23T10:52:04.805Z,11.00
2019-02-23T10:54:35.519Z,11.20
2019-02-23T10:57:06.281Z,11.10
2019-02-23T10:59:36.973Z,11.00
2019-02-23T11:02:07.646Z,11.50
2019-02-23T11:04:38.281Z,11.80
2019-02-23T11:07:09.022Z,12.10
2019-02-23T11:09:40.133Z,11.40
2019-02-23T11:12:10.798Z,11.50
2019-02-23T11:14:41.429Z,11.50
2019-02-23T11:17:12.014Z,11.50
2019-02-23T11:19:42.570Z,11.60
2019-02-23T11:22:13.258Z,11.40
2019-02-23T11:24:43.945Z,12.00
2019-02-23T11:27:14.841Z,11.90
2019-02-23T11:29:45.486Z,11.40
2019-02-23T11:32:16.238Z,11.60
2019-02-23T11:34:46.993Z,12.10
2019-02-23T11:37:17.587Z,12.30
2019-02-23T11:39:48.162Z,11.50
2019-02-23T11:42:18.922Z,12.40
2019-02-23T11:44:49.571Z,11.80
2019-02-23T11:47:20.442Z,12.20
2019-02-23T11:49:51.071Z,12.50
2019-02-23T11:52:21.829Z,12.80
2019-02-23T11:54:52.602Z,12.20
2019-02-23T11:57:23.278Z,13.10
2019-02-23T11:59:54.025Z,12.80
2019-02-23T12:02:25.044Z,12.80
2019-02-23T12:04:55.770Z,12.50
2019-02-23T12:07:26.417Z,12.40
2019-02-23T12:09:57.121Z,12.40
2019-02-23T12:12:27.825Z,12.50
2019-02-23T12:14:58.457Z,13.10
2019-02-23T12:17:29.126Z,12.60
2019-02-23T12:19:59.851Z,13.40
2019-02-23T12:22:30.534Z,13.60
2019-02-23T12:25:02.225Z,13.40
2019-02-23T12:27:32.886Z,13.30
2019-02-23T12:30:03.457Z,13.60
2019-02-23T12:32:34.229Z,13.40
2019-02-23T12:35:05.079Z,13.90
2019-02-23T12:37:35.840Z,13.80
2019-02-23T12:40:06.513Z,13.80
2019-02-23T12:42:37.173Z,13.30
2019-02-23T12:45:08.141Z,13.40
2019-02-23T12:47:39.016Z,13.10
2019-02-23T12:50:09.795Z,12.80
2019-02-23T12:52:41.603Z,12.70
2019-02-23T12:55:12.328Z,12.40
2019-02-23T12:57:43.070Z,12.60
2019-02-23T13:00:13.729Z,12.80
2019-02-23T13:02:44.474Z,12.40
2019-02-23T13:05:15.197Z,13.00
2019-02-23T13:07:45.918Z,12.50
2019-02-23T13:10:16.577Z,12.70
2019-02-23T13:12:57.963Z,12.50
2019-02-23T13:15:55.714Z,12.30
2019-02-23T13:18:49.882Z,11.90
2019-02-23T13:21:38.100Z,11.60
2019-02-23T13:24:45.406Z,12.70
2019-02-23T13:27:45.229Z,12.00
2019-02-23T13:31:02.349Z,12.50
2019-02-23T13:34:00.098Z,12.60
2019-02-23T13:37:20.820Z,12.20
2019-02-23T13:40:21.698Z,12.20
2019-02-23T13:43:21.932Z,12.00
2019-02-23T13:46:07.278Z,12.20
2019-02-23T13:49:37.217Z,13.20
2019-02-23T13:52:52.125Z,13.30
2019-02-23T13:56:09.818Z,13.90
2019-02-23T13:58:49.409Z,12.80
2019-02-23T14:01:52.202Z,12.30
2019-02-23T14:05:10.258Z,11.80
2019-02-23T14:08:22.224Z,11.80
2019-02-23T14:11:27.376Z,11.40
2019-02-23T14:14:41.789Z,11.50
2019-02-23T14:17:34.290Z,11.40
2019-02-23T14:20:18.557Z,11.50
2019-02-23T14:23:36.394Z,11.60
2019-02-23T14:26:37.135Z,11.90
2019-02-23T14:29:55.358Z,11.50
2019-02-23T14:32:55.874Z,11.20
2019-02-23T14:35:37.298Z,11.20
2019-02-23T14:38:36.441Z,11.10
2019-02-23T14:41:27.283Z,10.90
2019-02-23T14:44:29.779Z,11.00
2019-02-23T14:47:32.297Z,10.90
2019-02-23T14:50:32.841Z,10.80
2019-02-23T14:54:09.021Z,10.80
2019-02-23T14:57:30.091Z,10.80
2019-02-23T15:00:18.447Z,10.80
2019-02-23T15:03:17.751Z,10.70
2019-02-23T15:06:39.045Z,10.70
2019-02-23T15:09:25.838Z,10.70
2019-02-23T15:12:41.117Z,10.70
2019-02-23T15:15:31.895Z,10.60
2019-02-23T15:18:42.907Z,10.40
2019-02-23T15:21:38.674Z,10.50
2019-02-23T15:24:37.786Z,10.30
2019-02-23T15:27:40.425Z,10.20
2019-02-23T15:30:41.834Z,10.10
2019-02-23T15:34:08.337Z,10.10
2019-02-23T15:37:10.818Z,10.00
2019-02-23T15:40:33.380Z,9.90
2019-02-23T15:43:35.561Z,9.90
2019-02-23T15:46:29.295Z,9.80
2019-02-23T15:49:31.442Z,9.80
2019-02-23T15:52:06.739Z,9.80
2019-02-23T15:54:37.381Z,9.70
2019-02-23T15:57:08.106Z,9.50
2019-02-23T15:59:38.819Z,9.50
2019-02-23T16:02:09.577Z,9.40
2019-02-23T16:04:40.241Z,9.30
2019-02-23T16:07:10.994Z,9.10
2019-02-23T16:09:42.678Z,8.90
2019-02-23T16:12:13.449Z,8.80
2019-02-23T16:14:44.149Z,8.80
2019-02-23T16:17:14.798Z,8.70
2019-02-23T16:19:45.517Z,8.60
2019-02-23T16:22:18.594Z,8.60
2019-02-23T16:24:48.402Z,8.50
2019-02-23T16:27:19.051Z,8.50
2019-02-23T16:29:49.774Z,8.30
2019-02-23T16:32:20.505Z,8.30
2019-02-23T16:34:51.221Z,8.20
2019-02-23T16:37:21.870Z,8.10
2019-02-23T16:39:52.592Z,8.10
2019-02-23T16:42:23.252Z,8.00
2019-02-23T16:44:53.957Z,7.90
2019-02-23T16:47:24.622Z,7.80
2019-02-23T16:49:55.375Z,7.70
2019-02-23T16:52:26.029Z,7.60
2019-02-23T16:54:56.678Z,7.50
2019-02-23T16:57:27.420Z,7.40
2019-02-23T16:59:58.054Z,7.30
2019-02-23T17:02:28.786Z,7.40
2019-02-23T17:04:59.497Z,7.30
2019-02-23T17:07:30.158Z,7.30
2019-02-23T17:10:00.887Z,7.20
2019-02-23T17:12:31.566Z,7.10
2019-02-23T17:15:02.232Z,7.10
2019-02-23T17:17:34.123Z,7.00
2019-02-23T17:20:04.929Z,7.00
2019-02-23T17:22:35.595Z,6.90
2019-02-23T17:25:06.513Z,6.90
2019-02-23T17:27:37.318Z,6.80
2019-02-23T17:30:08.298Z,6.80
2019-02-23T17:32:39.008Z,6.70
2019-02-23T17:35:09.844Z,6.70
2019-02-23T17:37:40.630Z,6.60
2019-02-23T17:40:11.325Z,6.70
2019-02-23T17:42:41.977Z,6.60
2019-02-23T17:45:12.554Z,6.60
2019-02-23T17:47:43.345Z,6.40
2019-02-23T17:50:13.985Z,7.00
2019-02-23T17:52:44.702Z,6.30
2019-02-23T17:55:15.395Z,6.20
2019-02-23T17:57:46.121Z,6.20
2019-02-23T18:00:19.273Z,6.10
2019-02-23T18:02:50.109Z,6.00
2019-02-23T18:05:20.771Z,6.00
2019-02-23T18:07:51.503Z,5.90
2019-02-23T18:10:22.202Z,5.90
2019-02-23T18:12:52.933Z,5.90
2019-02-23T18:15:23.483Z,6.00
2019-02-23T18:17:54.151Z,5.90
2019-02-23T18:20:24.841Z,5.80
2019-02-23T18:22:55.489Z,5.80
2019-02-23T18:25:26.286Z,5.80
2019-02-23T18:27:57.026Z,5.80
2019-02-23T18:30:27.672Z,5.70
2019-02-23T18:32:58.390Z,5.70
2019-02-23T18:35:29.017Z,5.60
2019-02-23T18:37:59.767Z,5.60
2019-02-23T18:40:30.458Z,5.60
2019-02-23T18:43:01.222Z,5.60
2019-02-23T18:45:31.959Z,5.60
2019-02-23T18:48:02.878Z,5.50
2019-02-23T18:50:33.429Z,5.50
2019-02-23T18:53:04.040Z,5.50
2019-02-23T18:55:40.804Z,5.50
2019-02-23T18:58:07.153Z,5.50
2019-02-23T19:00:37.850Z,5.40
2019-02-23T19:03:08.500Z,5.40
2019-02-23T19:05:39.047Z,5.40
2019-02-23T19:08:09.870Z,5.30
2019-02-23T19:10:40.618Z,5.20
2019-02-23T19:13:11.281Z,5.20
2019-02-23T19:15:42.017Z,5.20
2019-02-23T19:18:12.609Z,5.20
2019-02-23T19:20:43.275Z,5.10
2019-02-23T19:23:13.998Z,5.00
2019-02-23T19:25:44.653Z,5.10
2019-02-23T19:28:15.413Z,5.10
2019-02-23T19:30:45.961Z,5.00
2019-02-23T19:33:16.638Z,5.00
2019-02-23T19:35:47.237Z,4.90
2019-02-23T19:38:17.867Z,4.90
2019-02-23T19:40:48.545Z,4.80
2019-02-23T19:43:19.117Z,4.70
2019-02-23T19:45:49.743Z,4.80
2019-02-23T19:48:20.530Z,4.80
2019-02-23T19:50:55.058Z,4.70
2019-02-23T19:53:25.737Z,4.70
2019-02-23T19:55:56.425Z,4.60
2019-02-23T19:58:27.158Z,4.40
2019-02-23T20:00:57.845Z,4.30
2019-02-23T20:03:28.574Z,4.30
2019-02-23T20:05:59.188Z,4.30
2019-02-23T20:08:29.898Z,4.30
2019-02-23T20:11:00.537Z,4.20
2019-02-23T20:13:31.194Z,4.10
2019-02-23T20:16:01.796Z,4.20
2019-02-23T20:18:33.449Z,4.10
2019-02-23T20:21:04.110Z,4.10
2019-02-23T20:23:34.742Z,4.10
2019-02-23T20:26:05.451Z,4.10
2019-02-23T20:28:36.083Z,4.10
2019-02-23T20:31:06.709Z,4.10
2019-02-23T20:33:37.292Z,4.00
2019-02-23T20:36:07.901Z,3.90
2019-02-23T20:38:39.598Z,3.90
2019-02-23T20:41:11.438Z,3.80
2019-02-23T20:43:42.101Z,3.80
2019-02-23T20:46:13.782Z,3.80
2019-02-23T20:48:44.461Z,3.80
2019-02-23T20:51:15.087Z,3.80
2019-02-23T20:53:45.697Z,3.80
2019-02-23T20:56:16.351Z,3.70
2019-02-23T20:58:47.049Z,3.60
2019-02-23T21:01:17.686Z,3.60
2019-02-23T21:03:48.367Z,3.60
2019-02-23T21:06:18.997Z,3.60
2019-02-23T21:11:19.577Z,3.40
2019-02-23T21:13:51.628Z,3.50
2019-02-23T21:16:24.081Z,3.50
2019-02-23T21:18:54.943Z,3.50
2019-02-23T21:21:26.042Z,3.30
2019-02-23T21:23:57.088Z,3.20
2019-02-23T21:26:28.113Z,3.30
2019-02-23T21:28:58.953Z,3.30
2019-02-23T21:31:29.951Z,3.30
2019-02-23T21:34:00.849Z,3.30
2019-02-23T21:36:31.945Z,3.30
2019-02-23T21:39:02.858Z,3.30
2019-02-23T21:41:35.498Z,3.30
2019-02-23T21:44:06.580Z,3.50
2019-02-23T21:46:37.602Z,3.40
2019-02-23T21:49:08.494Z,3.30
2019-02-23T21:51:39.593Z,3.30
2019-02-23T21:54:11.618Z,3.20
2019-02-23T21:56:42.658Z,3.30
2019-02-23T21:59:13.633Z,3.20
2019-02-23T22:01:44.438Z,3.30
2019-02-23T22:04:15.358Z,3.20
2019-02-23T22:06:46.122Z,3.10
2019-02-23T22:09:16.728Z,3.20
2019-02-23T22:11:47.461Z,3.20
2019-02-23T22:14:18.054Z,3.30
2019-02-23T22:16:48.750Z,3.20
2019-02-23T22:19:19.420Z,3.10
2019-02-23T22:21:50.117Z,3.10
2019-02-23T22:24:20.777Z,3.20
2019-02-23T22:26:51.398Z,3.20
2019-02-23T22:29:21.993Z,3.10
2019-02-23T22:31:52.606Z,3.10
2019-02-23T22:34:23.285Z,3.10
2019-02-23T22:36:53.920Z,3.20
2019-02-23T22:39:24.559Z,3.10
2019-02-23T22:41:55.223Z,3.00
2019-02-23T22:44:25.909Z,2.90
2019-02-23T22:46:56.531Z,3.00
2019-02-23T22:49:27.146Z,3.00
2019-02-23T22:57:44.941Z,2.80
2019-02-23T23:00:17.701Z,2.90
2019-02-23T23:02:49.945Z,2.80
2019-02-23T23:05:21.718Z,2.90
2019-02-23T23:07:52.343Z,2.80
2019-02-23T23:10:23.029Z,2.90
2019-02-23T23:12:53.677Z,2.90
2019-02-23T23:15:25.289Z,2.80
2019-02-23T23:17:55.921Z,2.80
2019-02-23T23:20:26.526Z,2.70
2019-02-23T23:22:57.079Z,2.70
2019-02-23T23:25:27.695Z,2.70
2019-02-23T23:27:58.333Z,2.80
2019-02-23T23:30:29.936Z,2.80
2019-02-23T23:33:00.566Z,2.70
2019-02-23T23:35:31.250Z,2.80
2019-02-23T23:38:02.863Z,2.80
2019-02-23T23:40:33.468Z,2.80
2019-02-23T23:43:04.005Z,2.80
2019-02-23T23:45:34.546Z,2.80
2019-02-23T23:48:05.246Z,2.70
2019-02-23T23:50:35.858Z,2.70
2019-02-23T23:53:06.492Z,2.80
2019-02-23T23:55:37.119Z,2.70
2019-02-23T23:58:07.745Z,2.70
